SBI0304 UWKD-HESH
Flight info
| Callsign | SBI0304 |
|---|---|
| Flight time | N/A |
| Altitude | 35000 |
| Route | INTAR1G INTAR M161 URL W324 ATR/K0856F340 W324 AKT N37 IPLED G96 MKL/K0856F360 A955 LURIS/N0462F360 DCT BARUS DCT SARPI UN37 TBN UW706 SIV UT284 EVKIT/N0452F370 UL620 VESAR/N0455F360 DCT PASOS/N0452F370 L550 DATOK J981 NOVPA R650 SHM |
| Aircraft | A320/M-SDE3FGHIRWY/LB1 |
Departure
| Time | 2026-05-07 17:42 |
|---|---|
| Airport | Kazan International Airport (UWKD) |
Arrival
| Time | N/A |
|---|---|
| Airport | Sharm El Sheikh International Airport (HESH) |
| Time | Latitude | Longitude | Altitude | Speed | Heading |
|---|---|---|---|---|---|
| 2026-05-07 17:19 | 55.60634 | 49.29795 | 378 ft | 0 kts | 34° |
| 2026-05-07 17:36 | 55.60672 | 49.29817 | 414 ft | 10 kts | 350° |
| 2026-05-07 17:36 | 55.60738 | 49.29677 | 409 ft | 18 kts | 304° |
| 2026-05-07 17:36 | 55.60805 | 49.29500 | 412 ft | 12 kts | 304° |
| 2026-05-07 17:36 | 55.60784 | 49.29388 | 415 ft | 15 kts | 213° |
| 2026-05-07 17:37 | 55.60654 | 49.29236 | 415 ft | 26 kts | 214° |
| 2026-05-07 17:37 | 55.60577 | 49.28975 | 415 ft | 27 kts | 275° |
| 2026-05-07 17:37 | 55.60601 | 49.28602 | 415 ft | 31 kts | 293° |
| 2026-05-07 17:37 | 55.60720 | 49.28288 | 410 ft | 33 kts | 303° |
| 2026-05-07 17:38 | 55.60861 | 49.27923 | 416 ft | 37 kts | 304° |
| 2026-05-07 17:38 | 55.61005 | 49.27559 | 414 ft | 36 kts | 305° |
| 2026-05-07 17:38 | 55.61145 | 49.27193 | 413 ft | 36 kts | 304° |
| 2026-05-07 17:38 | 55.61296 | 49.26802 | 410 ft | 40 kts | 304° |
| 2026-05-07 17:39 | 55.61451 | 49.26404 | 411 ft | 39 kts | 304° |
| 2026-05-07 17:39 | 55.61613 | 49.25991 | 409 ft | 38 kts | 304° |
| 2026-05-07 17:39 | 55.61752 | 49.25634 | 413 ft | 37 kts | 304° |
| 2026-05-07 17:39 | 55.61854 | 49.25337 | 415 ft | 17 kts | 271° |
| 2026-05-07 17:40 | 55.61792 | 49.25217 | 410 ft | 19 kts | 220° |
| 2026-05-07 17:40 | 55.61677 | 49.25164 | 406 ft | 12 kts | 128° |
| 2026-05-07 17:40 | 55.61671 | 49.25177 | 409 ft | 0 kts | 126° |
| 2026-05-07 17:41 | 55.61574 | 49.25422 | 410 ft | 60 kts | 124° |
| 2026-05-07 17:41 | 55.61232 | 49.26318 | 410 ft | 119 kts | 124° |
| 2026-05-07 17:41 | 55.60665 | 49.27795 | 414 ft | 166 kts | 125° |
| 2026-05-07 17:42 | 55.59938 | 49.29629 | 921 ft | 177 kts | 124° |
| 2026-05-07 17:42 | 55.59199 | 49.31522 | 1267 ft | 198 kts | 124° |
| 2026-05-07 17:42 | 55.58376 | 49.33643 | 1488 ft | 222 kts | 123° |
| 2026-05-07 17:42 | 55.57456 | 49.36011 | 1818 ft | 245 kts | 124° |
| 2026-05-07 17:43 | 55.56457 | 49.38584 | 2459 ft | 255 kts | 124° |
| 2026-05-07 17:43 | 55.55434 | 49.41169 | 3212 ft | 260 kts | 128° |
| 2026-05-07 17:43 | 55.54213 | 49.43521 | 3920 ft | 267 kts | 134° |
| 2026-05-07 17:43 | 55.52879 | 49.45853 | 4637 ft | 273 kts | 135° |
| 2026-05-07 17:44 | 55.51493 | 49.48203 | 5346 ft | 279 kts | 135° |
| 2026-05-07 17:44 | 55.50079 | 49.50585 | 6104 ft | 283 kts | 135° |
| 2026-05-07 17:44 | 55.48648 | 49.53001 | 6843 ft | 286 kts | 135° |
| 2026-05-07 17:44 | 55.47206 | 49.55448 | 7568 ft | 290 kts | 135° |
| 2026-05-07 17:45 | 55.45744 | 49.57941 | 7889 ft | 293 kts | 134° |
| 2026-05-07 17:45 | 55.44288 | 49.60433 | 7962 ft | 292 kts | 134° |
| 2026-05-07 17:45 | 55.42833 | 49.62935 | 8120 ft | 294 kts | 134° |
| 2026-05-07 17:45 | 55.41350 | 49.65483 | 8935 ft | 295 kts | 134° |
| 2026-05-07 17:46 | 55.40372 | 49.67160 | 9345 ft | 303 kts | 134° |
| 2026-05-07 17:46 | 55.38320 | 49.70683 | 10220 ft | 316 kts | 135° |
| 2026-05-07 17:46 | 55.36733 | 49.73397 | 10854 ft | 320 kts | 135° |
| 2026-05-07 17:46 | 55.35650 | 49.75243 | 11302 ft | 323 kts | 135° |
| 2026-05-07 17:47 | 55.34027 | 49.78001 | 11956 ft | 326 kts | 135° |
| 2026-05-07 17:47 | 55.32388 | 49.80786 | 12604 ft | 330 kts | 135° |
| 2026-05-07 17:47 | 55.30653 | 49.83451 | 13242 ft | 334 kts | 144° |
| 2026-05-07 17:47 | 55.28686 | 49.85539 | 13849 ft | 337 kts | 155° |
| 2026-05-07 17:48 | 55.26486 | 49.87011 | 14411 ft | 340 kts | 164° |
| 2026-05-07 17:48 | 55.24190 | 49.88204 | 14737 ft | 352 kts | 164° |
| 2026-05-07 17:48 | 55.21731 | 49.88963 | 14888 ft | 365 kts | 181° |
| 2026-05-07 17:48 | 55.19208 | 49.88190 | 14964 ft | 366 kts | 202° |
| 2026-05-07 17:49 | 55.17033 | 49.85932 | 14975 ft | 364 kts | 224° |
| 2026-05-07 17:49 | 55.15479 | 49.82495 | 14979 ft | 360 kts | 245° |
| 2026-05-07 17:49 | 55.14754 | 49.78399 | 14977 ft | 357 kts | 266° |
| 2026-05-07 17:49 | 55.14936 | 49.74077 | 14976 ft | 354 kts | 287° |
| 2026-05-07 17:50 | 55.15991 | 49.70270 | 14974 ft | 352 kts | 308° |
| 2026-05-07 17:50 | 55.17624 | 49.67028 | 14978 ft | 353 kts | 313° |